Time;durP1;ratioP1;P1;durP2;ratioP2;P2;SDS_P1;SDS_P2;PMS_P1;PMS_P2;Temp;Humidity;BMP_temperature;BMP_pressure;BME280_temperature;BME280_humidity;BME280_pressure;Samples;Min_cycle;Max_cycle;Signal;HPM_P1;HPM_P2
2022/03/26 00:00:48;;;;;;;47.47;42.58;;;28.20;76.60;;;;;;5103476;28;20040;-48
2022/03/26 00:03:15;;;;;;;60.17;46.83;;;28.20;76.70;;;;;;5103640;28;20130;-49
2022/03/26 00:05:45;;;;;;;68.68;49.65;;;28.20;76.70;;;;;;5104050;28;20023;-49
2022/03/26 00:08:13;;;;;;;50.42;45.03;;;28.20;76.90;;;;;;5103412;28;20077;-49
2022/03/26 00:10:40;;;;;;;51.30;44.85;;;28.10;76.50;;;;;;5103886;28;20047;-49
2022/03/26 00:13:07;;;;;;;55.78;44.67;;;28.10;76.70;;;;;;5103398;28;20042;-49
2022/03/26 00:15:34;;;;;;;57.90;45.63;;;28.10;76.80;;;;;;5102672;28;20315;-47
2022/03/26 00:18:01;;;;;;;50.75;43.50;;;28.10;77.10;;;;;;5104478;28;20363;-48
2022/03/26 00:20:27;;;;;;;47.60;42.55;;;28.10;77.00;;;;;;5107677;28;20337;-47
2022/03/26 00:22:54;;;;;;;48.72;43.63;;;28.10;76.80;;;;;;5107257;28;20039;-48
2022/03/26 00:28:12;;;;;;;59.55;53.67;;;28.10;76.90;;;;;;5106617;28;20082;-56
2022/03/26 00:30:40;;;;;;;53.75;48.03;;;28.10;76.80;;;;;;5107466;28;20036;-54
2022/03/26 00:33:07;;;;;;;48.58;43.85;;;28.10;76.50;;;;;;5106885;28;20031;-53
2022/03/26 00:35:33;;;;;;;47.92;43.17;;;28.10;75.90;;;;;;5107231;28;20023;-51
2022/03/26 00:38:00;;;;;;;49.42;44.50;;;28.00;75.80;;;;;;5107008;28;20020;-52
2022/03/26 00:40:27;;;;;;;50.22;44.92;;;28.00;75.70;;;;;;5107325;28;20323;-46
2022/03/26 00:42:55;;;;;;;50.22;45.50;;;28.10;75.90;;;;;;5106285;28;20016;-49
2022/03/26 00:45:24;;;;;;;52.42;47.10;;;28.00;75.70;;;;;;5106533;28;20052;-42
2022/03/26 00:47:51;;;;;;;52.78;47.63;;;28.00;76.20;;;;;;5127469;28;20078;-48
2022/03/26 00:50:17;;;;;;;54.53;48.63;;;28.00;76.20;;;;;;5127515;28;20023;-50
2022/03/26 00:52:44;;;;;;;52.55;46.95;;;28.00;76.50;;;;;;5106686;28;20092;-47
2022/03/26 00:55:11;;;;;;;54.72;49.03;;;28.00;76.50;;;;;;5106907;28;20028;-50
2022/03/26 00:57:37;;;;;;;53.63;47.97;;;27.90;76.50;;;;;;5106315;28;20039;-46
2022/03/26 01:00:07;;;;;;;51.60;46.70;;;27.90;76.30;;;;;;5106680;28;20057;-46
2022/03/26 01:02:33;;;;;;;51.03;45.80;;;27.90;76.60;;;;;;5088157;28;20220;-47
2022/03/26 01:05:01;;;;;;;52.97;47.30;;;27.90;76.30;;;;;;5107039;28;20024;-47
2022/03/26 01:07:28;;;;;;;51.40;46.40;;;27.90;76.50;;;;;;5106235;28;20020;-49
2022/03/26 01:09:55;;;;;;;48.90;44.45;;;27.90;76.20;;;;;;5106480;28;20047;-49
2022/03/26 01:12:23;;;;;;;51.28;46.25;;;27.90;76.20;;;;;;5106076;28;20086;-45
2022/03/26 01:14:51;;;;;;;51.00;45.53;;;27.90;76.10;;;;;;5105655;28;20045;-54
2022/03/26 01:17:19;;;;;;;51.08;45.65;;;27.90;75.80;;;;;;5106164;28;20039;-52
2022/03/26 01:19:46;;;;;;;52.80;44.90;;;27.90;75.90;;;;;;5106245;28;20023;-53
2022/03/26 01:22:13;;;;;;;52.10;46.70;;;27.90;76.00;;;;;;5105915;28;20035;-49
2022/03/26 01:24:41;;;;;;;50.47;45.40;;;27.90;76.20;;;;;;5106283;28;20048;-48
2022/03/26 01:27:08;;;;;;;52.85;46.05;;;27.90;76.80;;;;;;5105736;28;20066;-50
2022/03/26 01:29:38;;;;;;;50.35;45.20;;;27.90;76.10;;;;;;5105583;28;20024;-48
2022/03/26 01:32:07;;;;;;;49.05;44.13;;;27.90;75.80;;;;;;5105771;28;20277;-54
2022/03/26 01:34:35;;;;;;;50.47;45.08;;;27.80;75.70;;;;;;5106011;28;20036;-48
2022/03/26 01:37:02;;;;;;;48.33;43.55;;;27.90;75.80;;;;;;5111967;28;20020;-45
2022/03/26 01:39:30;;;;;;;46.47;41.67;;;27.90;75.70;;;;;;5126457;28;20035;-45
2022/03/26 01:42:06;;;;;;;46.78;42.30;;;27.90;75.60;;;;;;5111607;28;20008;-47
2022/03/26 01:44:34;;;;;;;46.30;41.63;;;27.90;75.40;;;;;;5126012;28;20077;-45
2022/03/26 01:47:01;;;;;;;48.70;43.58;;;27.90;75.20;;;;;;5119530;28;20020;-52
2022/03/26 01:49:28;;;;;;;47.38;42.58;;;27.90;75.10;;;;;;5123763;28;20030;-45
2022/03/26 01:51:55;;;;;;;45.80;41.22;;;27.80;75.00;;;;;;5120257;28;20032;-44
2022/03/26 01:54:28;;;;;;;45.45;40.33;;;27.90;74.80;;;;;;5105504;28;20024;-58
2022/03/26 01:56:55;;;;;;;43.70;39.50;;;27.90;74.90;;;;;;5086852;28;20220;-46
2022/03/26 01:59:24;;;;;;;43.65;39.35;;;27.90;75.00;;;;;;5104924;28;20027;-51
2022/03/26 02:01:51;;;;;;;42.83;38.60;;;27.90;74.70;;;;;;5104968;28;20020;-46
2022/03/26 02:04:17;;;;;;;42.58;38.03;;;27.90;74.60;;;;;;5105517;28;20208;-48
2022/03/26 02:06:44;;;;;;;41.75;37.50;;;27.80;74.20;;;;;;5104940;28;20031;-46
2022/03/26 02:09:13;;;;;;;42.08;37.72;;;27.80;74.50;;;;;;5087134;28;20036;-46
2022/03/26 02:11:43;;;;;;;41.75;37.53;;;27.80;74.30;;;;;;5104751;28;20061;-49
2022/03/26 02:14:11;;;;;;;41.78;37.40;;;27.90;74.30;;;;;;5105011;28;20032;-49
2022/03/26 02:16:40;;;;;;;40.90;36.55;;;27.80;74.10;;;;;;5104640;28;20331;-47
2022/03/26 02:19:08;;;;;;;39.35;35.47;;;27.80;73.90;;;;;;5105206;28;20031;-50
2022/03/26 02:21:37;;;;;;;38.95;35.38;;;27.80;73.90;;;;;;5104418;28;20087;-49
2022/03/26 02:24:06;;;;;;;39.15;35.45;;;27.80;73.80;;;;;;5105098;28;20107;-46
2022/03/26 02:26:32;;;;;;;37.70;34.10;;;27.80;73.50;;;;;;5104372;28;20056;-50
2022/03/26 02:29:09;;;;;;;37.22;33.55;;;27.90;73.60;;;;;;5104552;28;20042;-51
2022/03/26 02:31:37;;;;;;;37.42;33.95;;;27.90;73.30;;;;;;5104735;28;20071;-51
2022/03/26 02:34:05;;;;;;;37.38;33.67;;;27.90;73.20;;;;;;5104866;28;20031;-44
2022/03/26 02:36:32;;;;;;;38.78;34.40;;;27.90;73.20;;;;;;5104175;28;20090;-50
2022/03/26 02:38:59;;;;;;;36.83;33.08;;;27.90;73.20;;;;;;5104671;28;20051;-49
2022/03/26 02:41:26;;;;;;;38.40;34.58;;;27.90;73.30;;;;;;5104213;28;20027;-45
2022/03/26 02:43:55;;;;;;;35.85;32.47;;;27.90;72.90;;;;;;5124731;28;20299;-44
2022/03/26 02:46:24;;;;;;;35.17;31.50;;;27.90;72.80;;;;;;5125322;28;20015;-44
2022/03/26 02:48:50;;;;;;;35.22;31.92;;;27.90;72.70;;;;;;5099148;28;20029;-48
2022/03/26 02:51:17;;;;;;;34.92;31.58;;;27.90;72.50;;;;;;5116676;28;20023;-46
2022/03/26 02:53:43;;;;;;;35.55;32.00;;;27.90;72.30;;;;;;5124489;28;20260;-44
2022/03/26 02:56:10;;;;;;;36.45;32.50;;;27.90;71.60;;;;;;5106463;28;20031;-47
2022/03/26 02:58:37;;;;;;;35.95;32.28;;;27.90;72.00;;;;;;5124247;28;20090;-51
2022/03/26 03:01:03;;;;;;;83.45;75.80;;;27.90;72.50;;;;;;5124550;28;20067;-48
2022/03/26 03:03:30;;;;;;;85.30;77.40;;;28.00;72.50;;;;;;5124420;28;20020;-45
2022/03/26 03:05:58;;;;;;;102.95;93.15;;;27.90;72.40;;;;;;5106486;28;20019;-45
2022/03/26 03:08:24;;;;;;;110.78;99.93;;;27.90;72.10;;;;;;5124515;28;20211;-47
2022/03/26 03:10:51;;;;;;;85.35;76.90;;;27.90;72.60;;;;;;5124521;28;20019;-47
2022/03/26 03:13:21;;;;;;;70.80;64.40;;;28.00;72.60;;;;;;5124042;28;20031;-45
2022/03/26 03:15:51;;;;;;;58.22;52.72;;;27.90;72.10;;;;;;5124223;28;20245;-47
2022/03/26 03:18:18;;;;;;;55.60;49.88;;;28.00;71.90;;;;;;5124495;28;20016;-46
2022/03/26 03:20:45;;;;;;;49.80;44.88;;;27.90;72.20;;;;;;5124911;28;20076;-46
2022/03/26 03:23:13;;;;;;;45.10;40.38;;;28.00;71.80;;;;;;5124653;28;20038;-44
2022/03/26 03:25:40;;;;;;;43.70;39.50;;;28.00;71.90;;;;;;5124567;28;20339;-47
2022/03/26 03:28:07;;;;;;;37.28;33.83;;;28.00;71.80;;;;;;5124162;28;20049;-44
2022/03/26 03:30:34;;;;;;;36.22;32.72;;;28.00;71.80;;;;;;5124864;28;20028;-46
2022/03/26 03:33:00;;;;;;;36.92;33.10;;;28.00;71.30;;;;;;5124523;28;20027;-50
2022/03/26 03:35:27;;;;;;;34.90;31.52;;;27.90;71.30;;;;;;5124158;28;20197;-45
2022/03/26 03:37:53;;;;;;;34.88;31.45;;;28.00;71.20;;;;;;5106103;28;20121;-50
2022/03/26 03:40:20;;;;;;;33.88;30.70;;;28.00;71.50;;;;;;5124535;28;20191;-45
2022/03/26 03:42:47;;;;;;;34.85;31.45;;;28.00;71.60;;;;;;5124404;28;20087;-49
2022/03/26 03:45:14;;;;;;;33.67;30.13;;;28.00;71.70;;;;;;5124449;28;20308;-44
2022/03/26 03:47:41;;;;;;;33.88;30.58;;;28.00;72.10;;;;;;5124331;28;20019;-47
2022/03/26 03:50:08;;;;;;;32.75;29.67;;;28.00;71.80;;;;;;5124554;28;20036;-47
2022/03/26 03:52:35;;;;;;;32.80;29.60;;;28.00;71.70;;;;;;5126228;28;20222;-49
2022/03/26 03:55:01;;;;;;;33.53;29.92;;;28.00;72.40;;;;;;5128339;28;20091;-45
2022/03/26 03:57:28;;;;;;;31.65;28.52;;;28.00;72.30;;;;;;5128132;28;20035;-45
2022/03/26 03:59:54;;;;;;;31.92;28.58;;;27.90;72.00;;;;;;5109954;28;20042;-45
2022/03/26 04:02:21;;;;;;;33.35;28.25;;;27.90;72.30;;;;;;5128179;28;20030;-46
2022/03/26 04:04:47;;;;;;;32.05;28.65;;;27.90;72.80;;;;;;5128464;28;20064;-45
2022/03/26 04:07:14;;;;;;;31.13;27.80;;;27.90;73.20;;;;;;5128123;28;20211;-46
2022/03/26 04:09:40;;;;;;;31.50;28.30;;;27.90;72.70;;;;;;5128295;28;20062;-44
2022/03/26 04:12:07;;;;;;;30.50;27.58;;;27.90;73.10;;;;;;5128054;28;20023;-45
2022/03/26 04:14:35;;;;;;;30.52;27.35;;;27.90;73.60;;;;;;5127922;28;20099;-46
2022/03/26 04:17:02;;;;;;;30.13;27.13;;;27.90;73.30;;;;;;5127798;28;20019;-46
2022/03/26 04:19:29;;;;;;;30.13;27.02;;;27.90;73.70;;;;;;5128063;28;20026;-50
2022/03/26 04:21:56;;;;;;;28.73;25.90;;;27.90;73.50;;;;;;5127850;28;20032;-57
2022/03/26 04:24:23;;;;;;;29.23;26.23;;;27.90;72.30;;;;;;5128102;28;20126;-47
2022/03/26 04:26:50;;;;;;;29.65;26.73;;;27.90;72.40;;;;;;5127445;28;20083;-45
2022/03/26 04:29:17;;;;;;;31.83;28.77;;;27.90;73.10;;;;;;5127712;28;20288;-45
2022/03/26 04:31:45;;;;;;;30.33;27.52;;;27.90;73.60;;;;;;5127813;28;20062;-46
2022/03/26 04:34:11;;;;;;;31.65;28.60;;;27.90;73.70;;;;;;5127536;28;20059;-49
2022/03/26 04:36:38;;;;;;;45.40;41.05;;;27.90;73.70;;;;;;5127429;28;20212;-46
2022/03/26 04:39:05;;;;;;;45.05;40.88;;;27.90;73.30;;;;;;5127901;28;20073;-51
2022/03/26 04:41:31;;;;;;;53.78;48.53;;;27.90;73.10;;;;;;5127449;28;20020;-52
2022/03/26 04:43:58;;;;;;;35.70;32.20;;;27.80;72.90;;;;;;5127535;28;20051;-54
2022/03/26 04:46:25;;;;;;;32.75;29.60;;;27.80;73.00;;;;;;5127366;28;20035;-45
2022/03/26 04:48:51;;;;;;;32.55;29.35;;;27.80;73.20;;;;;;5127812;28;20038;-46
2022/03/26 04:51:18;;;;;;;30.95;27.90;;;27.80;73.30;;;;;;5127131;28;20219;-48
2022/03/26 04:53:44;;;;;;;31.60;28.48;;;27.80;73.30;;;;;;5127370;28;20027;-54
2022/03/26 04:56:11;;;;;;;32.47;29.40;;;27.80;73.50;;;;;;5127084;28;20023;-45
2022/03/26 04:58:38;;;;;;;30.30;27.30;;;27.80;73.30;;;;;;5127328;28;20012;-49
2022/03/26 05:01:05;;;;;;;31.33;28.15;;;27.80;73.10;;;;;;5126938;28;20085;-60
2022/03/26 05:03:32;;;;;;;31.42;28.30;;;27.80;73.00;;;;;;5105969;28;20023;-46
2022/03/26 05:05:58;;;;;;;29.77;27.17;;;27.80;73.00;;;;;;5113549;28;20023;-47
2022/03/26 05:08:25;;;;;;;31.98;28.88;;;27.80;73.20;;;;;;5127112;28;20047;-45
2022/03/26 05:10:52;;;;;;;30.60;27.80;;;27.80;73.30;;;;;;5127141;28;20028;-57
2022/03/26 05:13:18;;;;;;;31.52;28.63;;;27.80;73.70;;;;;;5126535;28;20020;-46
2022/03/26 05:15:45;;;;;;;30.35;27.58;;;27.70;74.50;;;;;;5127222;28;20342;-48
2022/03/26 05:18:13;;;;;;;30.80;27.95;;;27.70;74.30;;;;;;5126894;28;20299;-48
2022/03/26 05:20:40;;;;;;;30.33;27.40;;;27.70;74.20;;;;;;5127222;28;20058;-43
2022/03/26 05:23:06;;;;;;;31.30;28.08;;;27.70;74.50;;;;;;5126603;28;20080;-46
2022/03/26 05:25:33;;;;;;;29.80;26.90;;;27.70;74.90;;;;;;5126797;28;20035;-45
2022/03/26 05:27:59;;;;;;;29.95;26.88;;;27.60;74.00;;;;;;5126634;28;20055;-46
2022/03/26 05:30:26;;;;;;;29.50;26.45;;;27.60;74.00;;;;;;5126959;28;20078;-45
2022/03/26 05:32:53;;;;;;;30.20;27.27;;;27.60;74.70;;;;;;5126435;28;20035;-44
2022/03/26 05:35:19;;;;;;;28.80;25.70;;;27.60;74.40;;;;;;5126866;28;20118;-45
2022/03/26 05:37:47;;;;;;;28.33;25.73;;;27.60;74.30;;;;;;5126233;28;20275;-47
2022/03/26 05:40:17;;;;;;;29.17;26.58;;;27.60;74.50;;;;;;5126507;28;20034;-44
2022/03/26 05:42:45;;;;;;;28.63;25.88;;;27.60;74.90;;;;;;5126169;28;20307;-43
2022/03/26 05:45:13;;;;;;;30.20;27.25;;;27.60;74.50;;;;;;5126545;28;20047;-45
2022/03/26 05:47:39;;;;;;;29.33;26.50;;;27.60;74.50;;;;;;5126059;28;20020;-47
2022/03/26 05:50:09;;;;;;;27.95;25.42;;;27.60;74.80;;;;;;5126363;28;20346;-45
2022/03/26 05:52:37;;;;;;;28.55;25.85;;;27.60;75.00;;;;;;5126382;28;20099;-49
2022/03/26 05:55:04;;;;;;;30.40;27.30;;;27.60;74.90;;;;;;5126694;28;20032;-44
2022/03/26 05:57:31;;;;;;;29.92;27.02;;;27.50;75.10;;;;;;5125835;28;20016;-44
2022/03/26 05:59:57;;;;;;;28.25;25.75;;;27.60;74.70;;;;;;5126236;28;20020;-44
2022/03/26 06:02:24;;;;;;;27.67;25.17;;;27.50;74.60;;;;;;5126293;28;20046;-44
2022/03/26 06:04:50;;;;;;;28.10;25.48;;;27.60;74.90;;;;;;5126756;28;20036;-50
2022/03/26 06:07:17;;;;;;;29.13;26.50;;;27.50;74.80;;;;;;5125504;28;20027;-47
2022/03/26 06:09:44;;;;;;;28.50;25.85;;;27.50;75.30;;;;;;5126406;28;20036;-53
2022/03/26 06:12:10;;;;;;;29.20;26.60;;;27.50;75.50;;;;;;5125628;28;20016;-44
2022/03/26 06:14:37;;;;;;;30.02;27.15;;;27.50;75.70;;;;;;5125355;28;20086;-47
2022/03/26 06:17:04;;;;;;;29.77;26.73;;;27.50;74.80;;;;;;5125178;28;20098;-47
2022/03/26 06:19:30;;;;;;;29.42;26.48;;;27.50;74.40;;;;;;5125861;28;20019;-46
2022/03/26 06:21:57;;;;;;;28.30;25.50;;;27.50;74.60;;;;;;5125365;28;20038;-44
2022/03/26 06:24:24;;;;;;;28.00;25.20;;;27.50;74.60;;;;;;5125566;28;20054;-47
2022/03/26 06:26:50;;;;;;;27.92;25.33;;;27.50;74.70;;;;;;5125251;28;20073;-44
2022/03/26 06:29:17;;;;;;;27.58;24.95;;;27.50;74.70;;;;;;5125547;28;20035;-51
2022/03/26 06:31:45;;;;;;;26.83;24.20;;;27.50;74.60;;;;;;5125113;28;20094;-47
2022/03/26 06:34:11;;;;;;;26.60;24.05;;;27.50;74.40;;;;;;5125322;28;20070;-47
2022/03/26 06:36:39;;;;;;;25.98;23.58;;;27.50;75.10;;;;;;5124886;28;20023;-48
2022/03/26 06:39:06;;;;;;;25.33;22.92;;;27.50;74.50;;;;;;5125409;28;20027;-46
2022/03/26 06:41:38;;;;;;;24.38;21.75;;;27.50;74.60;;;;;;5125355;28;20339;-51
2022/03/26 06:44:09;;;;;;;23.80;21.40;;;27.50;74.60;;;;;;5125082;28;20046;-53
2022/03/26 06:46:37;;;;;;;22.65;20.63;;;27.50;74.80;;;;;;5124884;28;20036;-48
2022/03/26 06:49:05;;;;;;;22.08;19.83;;;27.50;74.90;;;;;;5125136;28;20117;-45
2022/03/26 06:51:34;;;;;;;22.15;20.05;;;27.50;75.00;;;;;;5125020;28;20039;-46
2022/03/26 06:54:00;;;;;;;20.90;18.85;;;27.50;75.20;;;;;;5125012;28;20066;-47
2022/03/26 06:56:27;;;;;;;21.30;19.20;;;27.40;75.20;;;;;;5124870;28;20019;-51
2022/03/26 06:58:54;;;;;;;20.60;18.52;;;27.40;75.20;;;;;;5125169;28;20239;-45
2022/03/26 07:01:20;;;;;;;20.23;18.33;;;27.40;75.40;;;;;;5124941;28;20020;-47
2022/03/26 07:03:48;;;;;;;20.65;18.55;;;27.40;75.40;;;;;;5124737;28;20023;-51
2022/03/26 07:06:16;;;;;;;21.25;18.83;;;27.40;75.90;;;;;;5124889;28;20271;-46
2022/03/26 07:08:43;;;;;;;19.90;17.70;;;27.30;76.20;;;;;;5124753;28;20048;-44
2022/03/26 07:11:09;;;;;;;21.55;19.40;;;27.40;76.30;;;;;;5124741;28;20076;-52
2022/03/26 07:13:36;;;;;;;21.77;19.40;;;27.40;76.70;;;;;;5124459;28;20023;-44
2022/03/26 07:16:03;;;;;;;20.95;18.75;;;27.40;76.90;;;;;;5124424;28;20107;-45
2022/03/26 07:18:30;;;;;;;20.02;18.08;;;27.30;76.90;;;;;;5124575;28;20024;-47
2022/03/26 07:21:00;;;;;;;20.85;18.95;;;27.40;76.90;;;;;;5124694;28;20065;-45
2022/03/26 07:23:28;;;;;;;21.45;19.27;;;27.30;77.00;;;;;;5124840;28;20125;-47
2022/03/26 07:25:55;;;;;;;20.48;18.42;;;27.30;77.10;;;;;;5124609;28;20067;-48
2022/03/26 07:28:22;;;;;;;21.98;18.20;;;27.30;77.10;;;;;;5124411;28;20040;-47
2022/03/26 07:30:49;;;;;;;20.83;18.63;;;27.30;77.00;;;;;;5124661;28;20023;-46
2022/03/26 07:33:15;;;;;;;21.45;19.17;;;27.30;77.10;;;;;;5124512;28;20039;-45
2022/03/26 07:35:42;;;;;;;22.52;18.38;;;27.30;77.10;;;;;;5124605;28;20055;-47
2022/03/26 07:38:09;;;;;;;19.60;17.70;;;27.30;76.90;;;;;;5124410;28;20027;-50
2022/03/26 07:40:35;;;;;;;20.60;18.50;;;27.30;76.90;;;;;;5125039;28;20027;-47
2022/03/26 07:43:02;;;;;;;20.67;18.73;;;27.30;77.00;;;;;;5124172;28;20039;-48
2022/03/26 07:45:29;;;;;;;21.15;18.88;;;27.30;76.80;;;;;;5124583;28;20038;-48
2022/03/26 07:47:56;;;;;;;20.73;18.63;;;27.20;77.00;;;;;;5124159;28;20015;-46
2022/03/26 07:50:23;;;;;;;20.92;18.55;;;27.20;77.00;;;;;;5124988;28;20177;-44
2022/03/26 07:52:49;;;;;;;22.60;19.15;;;27.30;76.70;;;;;;5124439;28;20031;-45
2022/03/26 07:55:16;;;;;;;21.10;18.92;;;27.30;76.80;;;;;;5124721;28;20072;-46
2022/03/26 07:57:43;;;;;;;20.60;18.55;;;27.30;76.80;;;;;;5124161;28;20031;-58
2022/03/26 08:00:11;;;;;;;19.55;17.60;;;27.30;76.70;;;;;;5124713;28;20285;-45
2022/03/26 08:02:38;;;;;;;19.95;18.15;;;27.30;76.90;;;;;;5124059;28;20015;-46
2022/03/26 08:05:05;;;;;;;20.05;18.05;;;27.30;76.80;;;;;;5124350;28;20036;-53
2022/03/26 08:07:32;;;;;;;19.25;17.40;;;27.30;76.80;;;;;;5124272;28;20293;-47
2022/03/26 08:09:58;;;;;;;20.63;18.55;;;27.30;76.80;;;;;;5124271;28;20035;-44
2022/03/26 08:12:25;;;;;;;20.77;18.58;;;27.30;76.40;;;;;;5123884;28;20019;-47
2022/03/26 08:14:52;;;;;;;20.02;18.02;;;27.30;76.80;;;;;;5124044;28;20034;-50
2022/03/26 08:17:18;;;;;;;19.35;17.42;;;27.30;76.70;;;;;;5124669;28;20031;-49
2022/03/26 08:19:46;;;;;;;19.23;17.48;;;27.30;76.80;;;;;;5124179;28;20016;-47
2022/03/26 08:22:13;;;;;;;18.58;16.98;;;27.30;76.50;;;;;;5124175;28;20027;-47
2022/03/26 08:24:40;;;;;;;20.05;18.05;;;27.30;76.30;;;;;;5124247;28;20015;-45
2022/03/26 08:27:06;;;;;;;20.30;18.13;;;27.30;76.30;;;;;;5123926;28;20328;-48
2022/03/26 08:29:33;;;;;;;19.48;17.67;;;27.30;76.50;;;;;;5124552;28;20032;-45
2022/03/26 08:32:02;;;;;;;20.02;18.13;;;27.30;76.80;;;;;;5123843;28;20124;-45
2022/03/26 08:34:29;;;;;;;18.15;16.45;;;27.30;76.60;;;;;;5105441;28;20246;-45
2022/03/26 08:36:55;;;;;;;22.73;17.77;;;27.30;76.60;;;;;;5124017;28;20015;-45
2022/03/26 08:39:22;;;;;;;19.80;17.88;;;27.30;77.10;;;;;;5125485;28;20032;-44
2022/03/26 08:41:49;;;;;;;20.13;18.00;;;27.30;76.90;;;;;;5127506;28;20023;-45
2022/03/26 08:44:15;;;;;;;19.40;17.60;;;27.30;76.80;;;;;;5127914;28;20022;-45
2022/03/26 08:46:42;;;;;;;19.20;17.30;;;27.30;76.60;;;;;;5127572;28;20312;-48
2022/03/26 08:49:09;;;;;;;20.83;18.05;;;27.30;76.60;;;;;;5127773;28;20241;-46
2022/03/26 08:51:35;;;;;;;19.38;17.52;;;27.30;76.60;;;;;;5127340;28;20054;-50
2022/03/26 08:54:03;;;;;;;18.60;16.80;;;27.30;76.50;;;;;;5127163;28;20031;-46
2022/03/26 08:56:30;;;;;;;19.00;17.13;;;27.30;76.60;;;;;;5126939;28;20049;-52
2022/03/26 08:58:57;;;;;;;19.02;17.17;;;27.30;76.40;;;;;;5127145;28;20274;-48
2022/03/26 09:01:25;;;;;;;20.15;18.05;;;27.30;76.40;;;;;;5127265;28;20037;-49
2022/03/26 09:03:52;;;;;;;23.38;17.58;;;27.30;76.40;;;;;;5127241;28;20032;-45
2022/03/26 09:06:18;;;;;;;19.30;17.30;;;27.30;76.30;;;;;;5127200;28;20034;-43
2022/03/26 09:08:45;;;;;;;18.98;17.25;;;27.30;76.40;;;;;;5127198;28;20041;-43
2022/03/26 09:11:12;;;;;;;19.58;17.50;;;27.30;76.70;;;;;;5126983;28;20046;-47
2022/03/26 09:13:39;;;;;;;21.15;19.05;;;27.20;76.90;;;;;;5126848;28;20311;-44
2022/03/26 09:16:06;;;;;;;21.50;19.30;;;27.10;78.40;;;;;;5126698;28;20231;-41
2022/03/26 09:18:33;;;;;;;19.73;17.83;;;27.10;78.70;;;;;;5126715;28;20016;-45
2022/03/26 09:20:59;;;;;;;22.50;19.58;;;27.10;78.80;;;;;;5126562;28;20031;-44
2022/03/26 09:23:26;;;;;;;20.85;18.55;;;27.10;79.30;;;;;;5126579;28;20039;-46
2022/03/26 09:25:52;;;;;;;21.38;19.27;;;27.10;79.20;;;;;;5126467;28;20110;-44
2022/03/26 09:28:19;;;;;;;22.83;20.38;;;27.10;79.50;;;;;;5126416;28;20103;-45
2022/03/26 09:30:45;;;;;;;22.42;20.23;;;27.10;80.50;;;;;;5127128;28;20027;-48
2022/03/26 09:33:12;;;;;;;22.30;19.88;;;27.10;80.60;;;;;;5126295;28;20023;-50
2022/03/26 09:35:39;;;;;;;23.75;21.52;;;27.10;80.60;;;;;;5127111;28;20065;-46
2022/03/26 09:38:05;;;;;;;23.42;21.33;;;27.10;80.80;;;;;;5126707;28;20033;-47
2022/03/26 09:40:33;;;;;;;24.08;21.80;;;27.10;81.60;;;;;;5126964;28;20027;-45
2022/03/26 09:43:01;;;;;;;25.42;22.92;;;27.10;82.20;;;;;;5126719;28;20016;-45
2022/03/26 09:45:27;;;;;;;25.50;23.00;;;27.10;83.00;;;;;;5126942;28;20028;-45
2022/03/26 09:47:54;;;;;;;26.42;23.90;;;27.10;83.40;;;;;;5126445;28;20035;-52
2022/03/26 09:50:21;;;;;;;27.90;24.73;;;27.00;84.00;;;;;;5126147;28;20068;-45
2022/03/26 09:52:50;;;;;;;28.25;25.60;;;27.00;84.30;;;;;;5126039;28;20027;-44
2022/03/26 09:55:21;;;;;;;30.80;27.90;;;27.00;85.60;;;;;;5126345;28;20072;-47
2022/03/26 09:57:49;;;;;;;31.92;28.67;;;27.00;85.80;;;;;;5125687;28;20023;-54
2022/03/26 10:00:16;;;;;;;32.13;28.35;;;27.00;85.90;;;;;;5126508;28;20032;-47
2022/03/26 10:02:42;;;;;;;30.67;27.83;;;26.90;86.50;;;;;;5126078;28;20015;-49
2022/03/26 10:05:12;;;;;;;30.15;27.15;;;26.90;86.80;;;;;;5126072;28;20046;-51
2022/03/26 10:07:39;;;;;;;30.75;27.48;;;26.90;86.80;;;;;;5126078;28;20336;-45
2022/03/26 10:10:07;;;;;;;30.98;27.65;;;26.90;86.90;;;;;;5126076;28;20028;-54
2022/03/26 10:12:34;;;;;;;30.45;27.30;;;26.90;87.10;;;;;;5126131;28;20038;-45
2022/03/26 10:15:04;;;;;;;28.52;25.63;;;26.90;87.60;;;;;;5126046;28;20104;-52
2022/03/26 10:17:34;;;;;;;30.42;27.15;;;26.90;88.20;;;;;;5125836;28;20043;-46
2022/03/26 10:20:08;;;;;;;32.20;26.73;;;26.90;88.40;;;;;;5126555;28;20019;-47
2022/03/26 10:22:48;;;;;;;32.38;26.33;;;26.90;88.70;;;;;;5125740;28;20032;-49
2022/03/26 10:25:18;;;;;;;30.10;25.95;;;26.80;88.50;;;;;;5126126;28;20023;-44
2022/03/26 10:27:57;;;;;;;28.38;25.15;;;26.80;88.60;;;;;;5125717;28;20320;-49
2022/03/26 10:33:30;;;;;;;28.73;25.75;;;26.70;89.00;;;;;;5078945;28;20039;-46
2022/03/26 10:35:59;;;;;;;29.08;25.90;;;26.70;89.70;;;;;;5125002;28;20080;-54
2022/03/26 10:38:29;;;;;;;29.52;26.27;;;26.60;89.50;;;;;;5125011;28;20023;-43
2022/03/26 10:41:01;;;;;;;29.02;25.98;;;26.60;89.90;;;;;;5125291;28;20015;-50
2022/03/26 10:43:28;;;;;;;28.17;25.23;;;26.60;89.80;;;;;;5125495;28;20050;-51
2022/03/26 10:46:00;;;;;;;28.23;25.40;;;26.50;90.00;;;;;;5125564;28;20024;-45
2022/03/26 10:48:29;;;;;;;28.90;26.10;;;26.50;89.90;;;;;;5125281;28;20053;-41
2022/03/26 10:51:07;;;;;;;27.77;25.23;;;26.50;89.90;;;;;;5125056;28;20350;-47
2022/03/26 10:53:44;;;;;;;27.70;24.92;;;26.50;90.00;;;;;;5124648;28;20043;-49
2022/03/26 10:56:13;;;;;;;29.38;26.60;;;26.50;90.00;;;;;;5124841;28;20024;-47
2022/03/26 10:58:40;;;;;;;32.30;29.13;;;26.50;90.00;;;;;;5125194;28;20038;-45
2022/03/26 11:01:07;;;;;;;29.48;26.58;;;26.50;90.00;;;;;;5124489;28;20061;-54
2022/03/26 11:03:37;;;;;;;31.67;28.42;;;26.50;90.00;;;;;;5124707;28;20047;-51
2022/03/26 11:06:09;;;;;;;30.05;27.10;;;26.50;90.20;;;;;;5124553;28;20225;-51
2022/03/26 11:08:36;;;;;;;30.83;27.58;;;26.50;90.20;;;;;;5124628;28;20038;-45
2022/03/26 11:11:08;;;;;;;29.92;27.00;;;26.50;90.30;;;;;;5124540;28;20100;-48
2022/03/26 11:13:44;;;;;;;29.87;26.77;;;26.50;90.20;;;;;;5124538;28;20058;-45
2022/03/26 11:16:34;;;;;;;30.45;26.42;;;26.50;90.30;;;;;;5124384;28;20308;-47
2022/03/26 11:19:23;;;;;;;29.33;26.42;;;26.50;90.20;;;;;;5124505;28;20065;-56
2022/03/26 11:22:29;;;;;;;29.67;26.63;;;26.40;90.20;;;;;;5124417;28;20041;-45
2022/03/26 11:25:19;;;;;;;29.60;26.63;;;26.50;90.30;;;;;;5124780;28;20220;-45
2022/03/26 11:28:15;;;;;;;30.55;27.35;;;26.50;90.20;;;;;;5124421;28;20042;-51
2022/03/26 11:31:01;;;;;;;31.13;28.00;;;26.40;90.50;;;;;;5125073;28;20082;-49
2022/03/26 11:33:35;;;;;;;31.30;28.10;;;26.40;90.40;;;;;;5124156;28;20053;-49
2022/03/26 11:36:03;;;;;;;33.00;29.45;;;26.40;90.50;;;;;;5124439;28;20095;-50
2022/03/26 11:38:31;;;;;;;30.42;27.63;;;26.50;90.50;;;;;;5124728;28;20019;-46
2022/03/26 11:41:08;;;;;;;29.70;26.80;;;26.50;90.40;;;;;;5124956;28;20027;-53
2022/03/26 11:43:44;;;;;;;30.52;27.45;;;26.50;90.50;;;;;;5123010;28;20019;-48
2022/03/26 11:52:16;;;;;;;26.13;23.73;;;26.50;90.20;;;;;;5122828;28;20231;-48
2022/03/26 11:54:49;;;;;;;26.35;23.48;;;26.40;90.10;;;;;;5121449;28;20104;-49
2022/03/26 11:57:16;;;;;;;25.50;23.00;;;26.40;90.00;;;;;;5122674;28;20211;-47
2022/03/26 11:59:43;;;;;;;25.60;22.83;;;26.40;90.00;;;;;;5124710;28;20024;-53
2022/03/26 12:02:24;;;;;;;25.67;23.17;;;26.40;90.00;;;;;;5124484;28;20199;-47
2022/03/26 12:04:56;;;;;;;25.63;23.10;;;26.40;90.00;;;;;;5125158;28;20036;-52
2022/03/26 12:07:27;;;;;;;27.27;24.40;;;26.40;90.00;;;;;;5124905;28;20314;-54
2022/03/26 12:10:11;;;;;;;27.42;24.92;;;26.40;90.00;;;;;;5125352;28;20031;-51
2022/03/26 12:13:01;;;;;;;29.70;26.80;;;26.30;90.00;;;;;;5125009;28;20012;-47
2022/03/26 12:15:34;;;;;;;27.25;24.60;;;26.40;90.10;;;;;;5128377;28;20084;-47
2022/03/26 12:18:14;;;;;;;28.45;25.45;;;26.40;90.40;;;;;;5128746;28;20012;-49
2022/03/26 12:20:48;;;;;;;28.85;26.15;;;26.40;90.20;;;;;;5129124;28;20059;-50
2022/03/26 12:23:28;;;;;;;30.20;27.27;;;26.40;90.20;;;;;;5128452;28;20035;-47
2022/03/26 12:26:07;;;;;;;29.60;26.88;;;26.40;90.20;;;;;;5128258;28;20055;-48
2022/03/26 12:28:36;;;;;;;27.88;25.25;;;26.40;90.20;;;;;;5128521;28;20145;-52
2022/03/26 12:31:08;;;;;;;29.92;27.15;;;26.40;90.30;;;;;;5128561;28;20068;-53
2022/03/26 12:33:43;;;;;;;29.40;26.50;;;26.40;90.30;;;;;;5128281;28;20012;-52
2022/03/26 12:36:11;;;;;;;29.13;26.13;;;26.30;90.30;;;;;;5128063;28;20081;-52
2022/03/26 12:38:39;;;;;;;27.75;25.25;;;26.30;90.40;;;;;;5128179;28;20019;-48
2022/03/26 12:41:08;;;;;;;27.25;24.75;;;26.30;90.30;;;;;;5128284;28;20098;-54
2022/03/26 12:43:35;;;;;;;25.48;23.15;;;26.30;90.20;;;;;;5127747;28;20043;-50